KNLC/NLC METAR and TAF weather

Enter ICAO airport designator
Station Type Date Time Source
KNLC METAR 2022/05/24 11:56 UTC NOAA

KNLC 241156Z AUTO 21007KT 10SM CLR 14/04 A2981 RMK AO2 SLP094 T01390044 10228 20128 53003


Station Type Date Time Source
KNLC Decoded METAR 2022/05/24 11:56 UTC NOAA

LEMOORE NAVAL AIR STATION, CA, United States (KNLC) 36-20N 119-57W 72M
May 24, 2022 - 07:56 AM EDT / 2022.05.24 1156 UTC
Wind: from the SSW (210 degrees) at 8 MPH (7 KT):0
Visibility: 10 mile(s):0
Sky conditions: clear
Temperature: 57.0 F (13.9 C)
Dew Point: 39.9 F (4.4 C)
Relative Humidity: 52%
Pressure (altimeter): 29.81 in. Hg (1009 hPa)
Pressure tendency: 0.01 inches (0.3 hPa) higher than three hours ago
ob: KNLC 241156Z AUTO 21007KT 10SM CLR 14/04 A2981 RMK AO2 SLP094 T01390044 10228 20128 53003
cycle: 12

Station Type Date Time Source
KNLC TAF 2022/05/24 07:06 UTC NOAA

TAF KNLC 2407/2507 32011KT 9999 SKC 520009 QNH2975INS
FM240900 35016KT 9999 SKC 500000 QNH2975INS
BECMG 2417/2419 35016KT 9999 SKC 520009 QNH2967INS AUTOMATED SENSOR METWATCH 2407 TIL 2415 T15/2412Z T37/2423Z FS30171

Example: see airport list